Aeroporto :
LOGIN :

Iscrizione | Disclaimer

   EN    FR    IT 

 










Sommario :    VFR   VFR Marginale   IFR   IFR Intensivo   IFR Molto Intensivo
Visibilità : 
Base nubi : 
>= 8 km
>= 3000ft
5 / 8 km
1000 / 3000 ft
1500m / 5 km
500 / 1000 ft
800 / 1500m
200 / 500 ft
< 800m
< 200 ft
Simboli :   Temporali  Nebbia  Neve Forte  Precipitazioni Forti  Vento > 20 kt
SIGMETs :   Varie  Temporali  Ghiacco  Turbolenza  Onda orograficha  Ceneri Vulcaniche






- Altitudine del aeroporto : 289 ft


LFYR - Romorantin Pruniers

ULTIMO METAR :
  • 121300Z AUTO 25010KT 220V290 9999 FEW036 SCT047 BKN070 10/04 Q1006 TEMPO 4000 SHRA BKN020TCU

METARs OBSOLETI :
  • 121230Z AUTO 25007KT 220V300 9999 FEW026 SCT034 BKN040 10/04 Q1006 TEMPO 4000 SHRA BKN020TCU
  • 121200Z AUTO 24010KT 220V280 9999 BKN026 BKN031 BKN039 10/05 Q1007 TEMPO 4000 SHRA BKN020TCU
  • 121130Z AUTO 24007KT 210V280 9999 BKN021 11/06 Q1007 TEMPO 4000 SHRA BKN020TCU
  • 121100Z AUTO 25008KT 210V320 9999 SCT020 SCT025 10/06 Q1007 TEMPO 4000 SHRA BKN020TCU
  • 121030Z AUTO 25008KT 220V280 9999 FEW016 09/06 Q1007 TEMPO 4000 SHRA BKN020TCU

Previsioni scadute.



MetMap, La meteo Aeronautica in un colpo d'occhio ! - Copyright ORBIFLY Dicembre 2007 - Disclaimer

ORBIFLY MET'MAP TEAM :

Programmazione e sviluppo : Alexandra Zaïnal
Concezione e sviluppo : Baudouin d'Aumeries
Co-Programmazione e sviluppo : Marc-Olivier Méhu
Supporto tecnico e logistico : Manuel Goepfert
Aiuto per la traduzione : Arnaldo La Scala

Contatto : metmap@orbifly.com




FONTI E CREDITI :

   NOAA